77°F Temp
50°F Dewpoint
39% Humidity
Temperature
12 MPH
19 KM/H
10 KTS
320°
North West

Wind Speed
Partly Cloudy
Conditions
Pressure 1016.92 (hPa) - 30.03 (in)
Visibility 10.0 (mi) - 16.1 (km)

Current Conditions
KSJC
Location 9(mi)
Metar :KSJC 172053Z 32010KT 10SM FEW030 FEW050 25/10 A3003 RMK AO2 SLP168 T02500100 58012
Tue 17th September 12:53 pm

Airport
  Metar Aviation API Data Provided by https://www.checkwx.com/ PHP scripts by weather34.com ©2019